Time;durP1;ratioP1;P1;durP2;ratioP2;P2;SDS_P1;SDS_P2;PMS_P1;PMS_P2;Temp;Humidity;BMP_temperature;BMP_pressure;BME280_temperature;BME280_humidity;BME280_pressure;Samples;Min_cycle;Max_cycle;Signal;HPM_P1;HPM_P2
2022/05/07 00:01:30;;;;;;;12.98;3.65;;;;;;;14.11;65.43;102287.00;10379726;28;20133;-73
2022/05/07 00:06:30;;;;;;;5.60;3.45;;;;;;;14.00;66.36;102280.13;10379847;28;20034;-73
2022/05/07 00:11:30;;;;;;;6.00;3.15;;;;;;;13.93;66.55;102277.31;10379610;28;20450;-73
2022/05/07 00:21:49;;;;;;;6.20;3.83;;;;;;;13.79;68.08;102260.97;10379447;28;20042;-73
2022/05/07 00:26:50;;;;;;;6.32;4.20;;;;;;;13.68;69.55;102254.91;10360803;28;20394;-73
2022/05/07 00:31:51;;;;;;;16.77;5.25;;;;;;;13.62;69.51;102262.97;10346380;28;20034;-73
2022/05/07 00:36:51;;;;;;;14.35;5.30;;;;;;;13.52;72.61;102262.41;10378613;28;20038;-74
2022/05/07 00:41:52;;;;;;;13.90;6.30;;;;;;;13.44;73.17;102256.00;10360287;28;20038;-73
2022/05/07 00:46:53;;;;;;;16.30;6.95;;;;;;;13.41;74.63;102269.97;10360812;28;20080;-73
2022/05/07 00:51:53;;;;;;;9.10;5.28;;;;;;;13.39;71.65;102263.03;10361107;28;20045;-73
2022/05/07 00:56:53;;;;;;;11.93;6.82;;;;;;;13.31;73.78;102253.06;10376609;28;20090;-73
2022/05/07 01:01:54;;;;;;;13.38;7.40;;;;;;;13.25;74.88;102260.06;10360133;28;20536;-73
2022/05/07 01:06:54;;;;;;;12.27;7.10;;;;;;;13.21;77.34;102252.44;10377464;28;20077;-73
2022/05/07 01:11:55;;;;;;;15.55;7.70;;;;;;;13.19;77.25;102260.75;10361007;28;20058;-72
2022/05/07 01:16:55;;;;;;;17.73;7.43;;;;;;;13.12;79.85;102258.97;10376543;28;20069;-73
2022/05/07 01:21:55;;;;;;;19.15;8.65;;;;;;;13.14;79.03;102255.00;10375479;28;20486;-73
2022/05/07 01:26:56;;;;;;;18.85;10.13;;;;;;;13.17;80.10;102251.94;10375432;28;20049;-73
2022/05/07 01:31:56;;;;;;;21.70;9.65;;;;;;;13.26;78.05;102241.88;10376418;28;20045;-73
2022/05/07 01:36:57;;;;;;;9.93;8.40;;;;;;;13.28;80.62;102237.09;10377182;28;20033;-73
2022/05/07 01:41:57;;;;;;;12.70;10.45;;;;;;;13.31;78.62;102233.19;10376320;28;20045;-73
2022/05/07 01:52:17;;;;;;;14.70;9.88;;;;;;;13.16;77.97;102227.66;10376149;28;20397;-73
2022/05/07 01:57:17;;;;;;;24.48;11.10;;;;;;;13.03;78.17;102230.97;10358442;28;20054;-73
2022/05/07 02:02:17;;;;;;;18.30;12.27;;;;;;;12.92;77.36;102231.38;10375885;28;20083;-73
2022/05/07 02:07:18;;;;;;;18.98;12.07;;;;;;;12.84;77.05;102235.00;10358738;28;20037;-73
2022/05/07 02:12:18;;;;;;;27.08;11.82;;;;;;;12.80;77.95;102225.53;10375924;28;20041;-73
2022/05/07 02:17:19;;;;;;;26.35;13.63;;;;;;;12.85;78.62;102228.53;10341545;28;20466;-73
2022/05/07 02:22:19;;;;;;;24.65;12.90;;;;;;;12.90;78.75;102230.72;10375646;28;20033;-73
2022/05/07 02:27:19;;;;;;;20.98;12.95;;;;;;;12.91;79.85;102232.41;10374858;28;20045;-73
2022/05/07 02:32:20;;;;;;;23.40;13.07;;;;;;;12.92;80.20;102225.94;10375422;28;20080;-73
2022/05/07 02:37:20;;;;;;;28.00;12.50;;;;;;;12.93;80.13;102239.38;10375460;28;20045;-73
2022/05/07 02:42:36;;;;;;;23.73;13.80;;;;;;;12.98;79.29;102238.81;10375241;28;20030;-73
2022/05/07 02:47:38;;;;;;;25.20;12.95;;;;;;;13.01;80.52;102250.16;10377032;28;20077;-73
2022/05/07 02:52:38;;;;;;;24.08;13.15;;;;;;;13.04;79.90;102247.09;10340489;28;20482;-73
2022/05/07 02:57:39;;;;;;;20.13;12.45;;;;;;;13.04;81.27;102240.81;10356541;28;20072;-73
2022/05/07 03:02:39;;;;;;;19.55;14.13;;;;;;;13.04;81.33;102240.81;10374180;28;20045;-73
2022/05/07 03:07:40;;;;;;;28.42;15.13;;;;;;;13.05;81.83;102250.69;10374559;28;20041;-73
2022/05/07 03:12:40;;;;;;;23.15;12.55;;;;;;;13.00;83.04;102245.78;10373534;28;20104;-73
2022/05/07 03:17:41;;;;;;;16.77;12.10;;;;;;;12.92;82.08;102245.84;10356982;28;20108;-73
2022/05/07 03:22:41;;;;;;;28.55;15.15;;;;;;;12.89;80.89;102248.03;10373228;28;20122;-73
2022/05/07 03:27:42;;;;;;;29.25;14.75;;;;;;;12.80;81.24;102244.56;10374776;28;20046;-73
2022/05/07 03:32:42;;;;;;;24.05;14.40;;;;;;;12.73;80.54;102244.44;10340247;28;20120;-73
2022/05/07 03:37:43;;;;;;;27.80;15.40;;;;;;;12.71;80.61;102251.91;10374480;28;20042;-73
2022/05/07 03:42:43;;;;;;;26.85;13.07;;;;;;;12.69;79.94;102247.66;10374533;28;20046;-73
2022/05/07 03:47:43;;;;;;;31.85;15.98;;;;;;;12.69;81.15;102253.09;10376059;28;20057;-73
2022/05/07 03:58:03;;;;;;;35.58;17.52;;;;;;;12.78;83.26;102269.19;10378668;28;20136;-73
2022/05/07 04:03:04;;;;;;;31.23;15.20;;;;;;;12.86;82.50;102278.31;10362557;28;20486;-73
2022/05/07 04:08:05;;;;;;;41.22;15.82;;;;;;;12.86;84.56;102270.16;10362268;28;20034;-73
2022/05/07 04:13:06;;;;;;;19.55;13.60;;;;;;;12.90;83.28;102274.22;10362784;28;20434;-73
2022/05/07 04:18:07;;;;;;;38.83;16.27;;;;;;;12.89;82.16;102272.50;10361877;28;20029;-72
2022/05/07 04:23:08;;;;;;;27.20;15.65;;;;;;;12.88;81.33;102273.56;10379309;28;20493;-73
2022/05/07 04:28:08;;;;;;;36.38;18.17;;;;;;;12.88;81.43;102273.56;10378928;28;20072;-73
2022/05/07 04:33:08;;;;;;;32.00;18.85;;;;;;;12.91;81.12;102271.31;10378956;28;20033;-73
2022/05/07 04:38:09;;;;;;;33.38;17.48;;;;;;;12.95;81.41;102280.78;10379028;28;20390;-73
2022/05/07 04:43:11;;;;;;;32.22;17.65;;;;;;;13.00;81.29;102274.84;10378392;28;20084;-73
2022/05/07 04:48:11;;;;;;;30.23;15.45;;;;;;;13.11;82.18;102279.84;10376376;28;20410;-73
2022/05/07 04:53:11;;;;;;;29.88;18.55;;;;;;;13.29;81.53;102286.91;10360429;28;20048;-73
2022/05/07 04:58:12;;;;;;;43.40;18.25;;;;;;;13.40;80.93;102290.06;10358694;28;20524;-73
2022/05/07 05:03:13;;;;;;;23.50;15.50;;;;;;;13.52;81.37;102289.63;10359421;28;20080;-73
2022/05/07 05:08:13;;;;;;;30.17;16.05;;;;;;;13.61;81.23;102294.81;10376793;28;20033;-73
2022/05/07 05:13:13;;;;;;;25.67;14.30;;;;;;;13.62;81.14;102296.47;10360026;28;20486;-73
2022/05/07 05:18:14;;;;;;;24.15;17.13;;;;;;;13.71;80.81;102298.09;10376055;28;20042;-73
2022/05/07 05:23:14;;;;;;;33.65;15.95;;;;;;;13.77;80.12;102310.16;10376913;28;20038;-72
2022/05/07 05:28:15;;;;;;;35.17;17.33;;;;;;;13.83;80.44;102314.00;10360772;28;20034;-73
2022/05/07 05:33:15;;;;;;;34.53;18.33;;;;;;;14.03;80.15;102312.44;10377084;28;20041;-73
2022/05/07 05:38:16;;;;;;;34.17;16.45;;;;;;;14.61;79.83;102321.72;10376526;28;20108;-73
2022/05/07 05:43:17;;;;;;;31.23;16.48;;;;;;;14.71;79.75;102318.69;10376572;28;20072;-73
2022/05/07 05:48:18;;;;;;;22.33;15.93;;;;;;;15.06;79.45;102322.47;10375849;28;20034;-73
2022/05/07 05:53:18;;;;;;;30.15;14.52;;;;;;;15.39;79.08;102315.69;10376038;28;20034;-73
2022/05/07 05:58:18;;;;;;;26.00;14.25;;;;;;;15.45;78.24;102318.47;10357355;28;20061;-73
2022/05/07 06:03:19;;;;;;;21.55;13.02;;;;;;;16.36;77.02;102318.56;10376035;28;20137;-73
2022/05/07 06:08:19;;;;;;;26.73;13.90;;;;;;;16.57;77.58;102319.53;10374377;28;20351;-73
2022/05/07 06:13:20;;;;;;;18.90;13.02;;;;;;;17.12;76.67;102323.97;10375590;28;20038;-73
2022/05/07 06:18:21;;;;;;;31.73;14.48;;;;;;;17.42;76.57;102320.88;10375132;28;20033;-73
2022/05/07 06:23:21;;;;;;;20.58;11.48;;;;;;;18.33;74.45;102326.56;10357318;28;20034;-74
2022/05/07 06:28:25;;;;;;;20.83;12.32;;;;;;;20.12;72.50;102326.63;10374486;28;20041;-74
2022/05/07 06:33:27;;;;;;;17.95;11.45;;;;;;;19.97;73.35;102330.56;10374307;28;20037;-73
2022/05/07 06:38:28;;;;;;;18.05;11.52;;;;;;;19.26;73.14;102333.59;10374460;28;20092;-74
2022/05/07 06:43:32;;;;;;;18.55;9.52;;;;;;;18.68;73.50;102330.91;10373995;28;20034;-74
2022/05/07 06:48:32;;;;;;;18.08;10.23;;;;;;;19.17;72.43;102341.25;10373349;28;20096;-74
2022/05/07 06:53:33;;;;;;;17.85;10.73;;;;;;;19.64;72.10;102346.50;10375320;28;20061;-74
2022/05/07 06:58:35;;;;;;;16.45;10.98;;;;;;;20.08;71.39;102337.22;10372918;28;20053;-74
2022/05/07 07:03:36;;;;;;;16.70;10.65;;;;;;;19.87;71.37;102340.38;10356820;28;20393;-74
2022/05/07 07:08:36;;;;;;;12.30;10.55;;;;;;;21.16;69.31;102337.72;10375030;28;20030;-74
2022/05/07 07:13:36;;;;;;;17.13;11.60;;;;;;;22.25;67.57;102338.31;10374874;28;20426;-74
2022/05/07 07:18:37;;;;;;;21.90;10.65;;;;;;;22.74;67.13;102327.78;10374726;28;20049;-73
2022/05/07 07:23:37;;;;;;;14.57;11.25;;;;;;;22.66;66.83;102336.47;10378403;28;20054;-73
2022/05/07 07:28:37;;;;;;;24.88;11.27;;;;;;;22.84;66.31;102332.69;10364911;28;20037;-73
2022/05/07 07:33:38;;;;;;;15.70;9.88;;;;;;;23.53;64.26;102343.72;10381888;28;20520;-73
2022/05/07 07:38:39;;;;;;;13.55;10.02;;;;;;;24.30;63.31;102338.34;10347452;28;20044;-73
2022/05/07 07:43:40;;;;;;;22.35;11.00;;;;;;;24.90;62.26;102335.81;10300753;28;20114;-75
2022/05/07 07:48:40;;;;;;;12.18;9.32;;;;;;;25.21;60.66;102335.09;10354950;28;20125;-73
2022/05/07 07:53:42;;;;;;;15.77;8.95;;;;;;;25.62;60.08;102340.19;10339431;28;20047;-73
2022/05/07 07:58:42;;;;;;;14.02;10.55;;;;;;;25.87;58.91;102347.91;10338504;28;20061;-74
2022/05/07 08:03:43;;;;;;;13.40;10.43;;;;;;;26.09;57.43;102345.88;10339544;28;20041;-74
2022/05/07 08:14:02;;;;;;;10.50;9.50;;;;;;;26.54;55.32;102344.50;10324421;28;20042;-74
2022/05/07 08:19:07;;;;;;;17.33;7.97;;;;;;;26.74;54.21;102348.47;10323198;28;20430;-74
2022/05/07 08:24:07;;;;;;;14.38;9.00;;;;;;;27.05;54.07;102346.63;10338675;28;20382;-73
2022/05/07 08:29:08;;;;;;;11.13;8.68;;;;;;;27.22;52.48;102349.22;10338933;28;20058;-74
2022/05/07 08:34:08;;;;;;;13.63;9.02;;;;;;;27.25;51.63;102357.88;10338863;28;20042;-74
2022/05/07 08:39:08;;;;;;;9.05;6.95;;;;;;;27.08;49.87;102355.25;10337837;28;20062;-74
2022/05/07 08:44:09;;;;;;;10.93;8.73;;;;;;;27.68;51.06;102350.09;10336254;28;20038;-74
2022/05/07 08:49:10;;;;;;;11.25;10.07;;;;;;;27.90;48.54;102363.78;10320405;28;20117;-74
2022/05/07 08:54:12;;;;;;;12.88;9.52;;;;;;;27.83;49.69;102359.63;10336656;28;20042;-74
2022/05/07 08:59:13;;;;;;;16.70;9.82;;;;;;;28.04;49.30;102375.19;10304443;28;20078;-75
2022/05/07 09:04:13;;;;;;;11.85;9.73;;;;;;;27.96;49.00;102367.41;10320119;28;20078;-70
2022/05/07 09:09:14;;;;;;;22.02;10.25;;;;;;;27.86;45.46;102373.00;10336888;28;20034;-70
2022/05/07 09:14:18;;;;;;;10.38;8.65;;;;;;;28.10;47.16;102378.81;10336818;28;20072;-71
2022/05/07 09:19:20;;;;;;;12.05;10.65;;;;;;;27.43;46.65;102370.41;10337349;28;20064;-71
2022/05/07 09:24:21;;;;;;;14.18;11.75;;;;;;;28.09;46.56;102382.72;10337323;28;20061;-69
2022/05/07 09:29:21;;;;;;;15.32;11.48;;;;;;;27.64;46.15;102385.19;10336268;28;20041;-70
2022/05/07 09:39:49;;;;;;;16.02;10.45;;;;;;;26.36;49.86;102373.56;10335949;28;20042;-70
2022/05/07 09:44:49;;;;;;;16.08;11.38;;;;;;;27.30;46.84;102382.88;10336243;28;20034;-70
2022/05/07 10:00:27;;;;;;;9.48;8.45;;;;;;;25.79;48.27;102390.03;10334347;28;20125;-70
2022/05/07 10:05:50;;;;;;;15.95;10.80;;;;;;;26.10;43.79;102388.34;10318994;28;20034;-69
2022/05/07 10:10:50;;;;;;;15.02;10.05;;;;;;;25.90;45.23;102389.03;10334963;28;20037;-69
2022/05/07 10:16:00;;;;;;;13.00;9.57;;;;;;;26.53;45.99;102394.78;10334130;28;20070;-72
2022/05/07 10:21:18;;;;;;;18.98;11.10;;;;;;;25.88;46.68;102394.03;10334763;28;20525;-69
2022/05/07 10:26:19;;;;;;;12.43;7.82;;;;;;;24.42;48.24;102406.66;10334387;28;20037;-69
2022/05/07 10:31:23;;;;;;;12.45;9.93;;;;;;;24.46;47.31;102400.34;10317109;28;20034;-70
2022/05/07 10:36:23;;;;;;;14.77;9.95;;;;;;;26.53;46.29;102398.41;10333172;28;20430;-68
2022/05/07 10:41:24;;;;;;;9.35;7.95;;;;;;;27.63;42.72;102408.53;10317192;28;20042;-68
2022/05/07 10:46:24;;;;;;;5.65;5.00;;;;;;;27.55;43.82;102411.88;10332745;28;20038;-69
2022/05/07 10:51:32;;;;;;;6.53;6.00;;;;;;;28.58;41.02;102396.84;10315874;28;20038;-69
2022/05/07 10:56:33;;;;;;;8.20;6.38;;;;;;;29.02;40.12;102390.56;10354063;28;20484;-69
2022/05/07 11:01:34;;;;;;;13.25;9.68;;;;;;;29.35;39.90;102393.72;10341921;28;20062;-69
2022/05/07 11:06:49;;;;;;;13.35;11.23;;;;;;;28.82;40.91;102402.63;10308052;28;20488;-69
2022/05/07 11:11:54;;;;;;;13.52;10.80;;;;;;;28.68;41.67;102399.59;10357397;28;20037;-69
2022/05/07 11:16:55;;;;;;;11.18;8.05;;;;;;;28.89;42.72;102399.53;10341493;28;20121;-69
2022/05/07 11:21:56;;;;;;;8.70;7.47;;;;;;;28.80;41.11;102407.66;10340340;28;20377;-70
2022/05/07 11:27:02;;;;;;;15.30;9.77;;;;;;;28.79;42.22;102396.78;10323339;28;20038;-69
2022/05/07 11:32:04;;;;;;;;;;;;;;;28.82;41.55;102401.78;10343094;28;20038;-69
2022/05/07 11:37:21;;;;;;;11.00;9.80;;;;;;;28.87;39.85;102410.13;10341426;28;19932;-68
2022/05/07 11:42:44;;;;;;;11.95;9.38;;;;;;;28.76;41.96;102408.50;10341281;28;20031;-70
2022/05/07 11:47:54;;;;;;;11.23;9.10;;;;;;;28.83;41.87;102397.88;10341485;28;20026;-70
2022/05/07 11:52:55;;;;;;;13.30;10.13;;;;;;;28.84;42.32;102396.75;10340174;28;20382;-70
2022/05/07 11:57:56;;;;;;;14.90;10.27;;;;;;;28.88;40.43;102404.28;10297502;28;20059;-70
2022/05/07 12:03:05;;;;;;;14.65;10.30;;;;;;;28.59;41.71;102404.09;10298266;28;20042;-70
2022/05/07 12:08:16;;;;;;;14.25;7.13;;;;;;;28.70;42.25;102400.16;10298389;28;20102;-72
2022/05/07 12:13:17;;;;;;;11.82;9.70;;;;;;;28.66;41.80;102404.63;10283426;28;20042;-70
2022/05/07 12:18:17;;;;;;;12.13;10.77;;;;;;;28.54;40.91;102412.47;10299477;28;20129;-70
2022/05/07 12:33:56;;;;;;;11.02;9.88;;;;;;;27.26;42.07;102406.81;10296974;28;20040;-71
2022/05/07 12:38:59;;;;;;;13.45;9.00;;;;;;;27.19;44.02;102410.97;10298207;28;20478;-71
2022/05/07 12:44:00;;;;;;;10.43;9.38;;;;;;;26.66;42.19;102419.31;10298557;28;20082;-71
2022/05/07 12:49:02;;;;;;;10.23;8.65;;;;;;;26.63;43.67;102417.91;10280462;28;20114;-71
2022/05/07 12:54:03;;;;;;;10.93;9.95;;;;;;;26.79;44.16;102416.03;10313213;28;20062;-71
2022/05/07 12:59:04;;;;;;;16.65;9.60;;;;;;;26.58;44.02;102420.66;10329908;28;20058;-71
2022/05/07 13:04:04;;;;;;;10.40;9.50;;;;;;;26.31;44.04;102425.44;10338047;28;20042;-71
2022/05/07 13:09:05;;;;;;;11.60;10.45;;;;;;;25.96;44.67;102430.44;10319262;28;20763;-71
2022/05/07 13:14:05;;;;;;;14.93;10.43;;;;;;;25.73;44.48;102428.81;10336879;28;20043;-71
2022/05/07 13:19:05;;;;;;;18.50;10.43;;;;;;;25.63;44.75;102423.16;10319734;28;20073;-71
2022/05/07 13:24:06;;;;;;;8.00;7.25;;;;;;;25.27;45.82;102427.47;10336112;28;20505;-71
2022/05/07 13:29:06;;;;;;;6.40;5.57;;;;;;;24.48;46.50;102439.69;10336330;28;20043;-76
2022/05/07 13:34:07;;;;;;;4.93;4.32;;;;;;;23.91;47.26;102426.00;10335544;28;20045;-74
2022/05/07 13:39:07;;;;;;;4.70;4.25;;;;;;;24.49;47.48;102433.06;10335390;28;20038;-75
2022/05/07 13:44:13;;;;;;;4.20;3.75;;;;;;;24.66;45.99;102427.47;10621040;27;1234702;-75
2022/05/07 13:49:14;;;;;;;4.70;3.20;;;;;;;22.82;48.61;102429.59;10617597;27;20043;-75
2022/05/07 13:54:15;;;;;;;3.30;3.00;;;;;;;23.26;48.61;102418.09;10618650;28;20039;-74
2022/05/07 13:59:15;;;;;;;3.30;3.10;;;;;;;23.02;48.46;102428.41;10616751;27;20134;-73
2022/05/07 14:04:16;;;;;;;3.63;3.33;;;;;;;23.02;49.19;102431.16;10617650;28;20131;-73
2022/05/07 14:09:17;;;;;;;2.42;2.25;;;;;;;22.89;48.73;102437.75;10616075;28;20392;-73
2022/05/07 14:14:18;;;;;;;5.10;4.60;;;;;;;22.81;49.85;102433.44;10618180;27;20376;-75
2022/05/07 14:19:18;;;;;;;10.80;5.25;;;;;;;23.05;50.13;102425.16;10615373;28;20065;-76
2022/05/07 14:24:19;;;;;;;6.85;5.85;;;;;;;23.11;49.97;102432.47;10616440;28;20031;-76
2022/05/07 14:29:19;;;;;;;10.63;6.60;;;;;;;23.08;50.87;102425.50;10614432;28;20035;-75
2022/05/07 14:34:19;;;;;;;8.93;6.65;;;;;;;23.05;51.40;102427.91;10614791;28;20036;-74
2022/05/07 14:39:20;;;;;;;6.80;5.95;;;;;;;22.65;51.59;102418.44;10616008;27;20023;-74
2022/05/07 14:44:20;;;;;;;5.30;4.30;;;;;;;22.29;52.14;102416.78;10615501;28;20187;-74
2022/05/07 14:49:22;;;;;;;6.53;4.88;;;;;;;22.12;52.41;102421.31;10614728;28;20035;-74
2022/05/07 14:54:23;;;;;;;5.53;4.13;;;;;;;22.15;52.70;102416.16;10594124;27;20440;-74
2022/05/07 14:59:23;;;;;;;4.35;3.72;;;;;;;21.86;53.26;102414.28;10587482;28;20097;-73
2022/05/07 15:04:24;;;;;;;3.55;3.25;;;;;;;21.75;54.16;102419.53;10587108;28;20413;-74
2022/05/07 15:14:45;;;;;;;10.68;5.95;;;;;;;21.30;55.60;102421.84;10585858;28;20264;-74
2022/05/07 15:19:45;;;;;;;14.95;8.73;;;;;;;20.43;57.53;102427.47;10586578;28;20032;-73
2022/05/07 15:24:45;;;;;;;11.02;7.72;;;;;;;20.02;58.99;102425.28;10585988;28;20027;-73
2022/05/07 15:29:46;;;;;;;10.35;7.97;;;;;;;19.83;60.66;102425.22;10584440;28;20075;-74
2022/05/07 15:40:07;;;;;;;11.07;6.40;;;;;;;19.93;60.42;102432.97;10543198;28;20191;-74
2022/05/07 15:45:11;;;;;;;11.45;8.05;;;;;;;19.33;64.38;102435.19;10567439;28;20047;-73
2022/05/07 15:50:11;;;;;;;8.85;7.55;;;;;;;18.74;66.51;102428.88;10567694;28;20051;-73
2022/05/07 15:55:12;;;;;;;10.38;8.38;;;;;;;18.46;66.77;102437.31;10583597;28;20032;-74
2022/05/07 16:00:13;;;;;;;10.57;9.52;;;;;;;18.21;65.62;102440.69;10583329;28;20132;-73
2022/05/07 16:05:13;;;;;;;13.68;10.98;;;;;;;18.05;67.52;102439.22;10584894;28;20110;-74
2022/05/07 16:10:15;;;;;;;10.48;9.45;;;;;;;17.76;68.29;102437.66;10585239;28;20059;-74
2022/05/07 16:15:15;;;;;;;22.98;13.15;;;;;;;17.60;67.71;102441.63;10566085;28;20088;-74
2022/05/07 16:20:16;;;;;;;26.20;16.38;;;;;;;17.36;69.41;102440.31;10585667;28;20036;-74
2022/05/07 16:25:16;;;;;;;31.90;21.02;;;;;;;17.02;72.71;102451.31;10584101;28;20126;-73
2022/05/07 16:30:17;;;;;;;28.77;20.20;;;;;;;16.87;71.94;102451.44;10584133;28;20035;-73
2022/05/07 16:35:18;;;;;;;32.67;19.15;;;;;;;17.03;71.43;102453.00;10582308;28;20134;-74
2022/05/07 16:40:19;;;;;;;24.75;16.98;;;;;;;16.63;71.91;102453.56;10581557;28;20066;-73
2022/05/07 16:45:20;;;;;;;26.42;16.35;;;;;;;16.16;72.40;102454.25;10581939;28;20065;-73
2022/05/07 16:50:21;;;;;;;32.15;16.15;;;;;;;15.70;72.70;102454.66;10582889;28;20028;-74
2022/05/07 16:55:22;;;;;;;31.60;17.40;;;;;;;15.53;71.50;102454.84;10582253;28;20497;-74
2022/05/07 17:00:22;;;;;;;20.33;14.80;;;;;;;15.43;72.79;102451.56;10582378;28;20072;-74
2022/05/07 17:05:24;;;;;;;28.48;18.27;;;;;;;15.43;72.91;102454.28;10582377;28;20059;-74
2022/05/07 17:10:24;;;;;;;26.52;15.63;;;;;;;15.37;74.54;102455.06;10582560;28;20516;-73
2022/05/07 17:15:25;;;;;;;23.33;15.43;;;;;;;15.37;75.14;102451.50;10581424;28;20100;-73
2022/05/07 17:20:25;;;;;;;31.27;14.95;;;;;;;15.46;80.46;102447.63;10581958;28;20038;-74
2022/05/07 17:25:29;;;;;;;23.17;13.38;;;;;;;15.50;79.29;102444.28;10580452;28;20217;-73
2022/05/07 17:30:29;;;;;;;18.75;12.63;;;;;;;15.67;75.77;102446.84;10581444;28;20080;-74
2022/05/07 17:35:30;;;;;;;19.13;11.13;;;;;;;15.78;77.97;102444.44;10581166;28;20488;-73
2022/05/07 17:40:30;;;;;;;21.35;8.93;;;;;;;15.96;74.49;102435.78;10579779;28;20113;-73
2022/05/07 17:45:31;;;;;;;16.30;6.75;;;;;;;16.09;78.69;102443.25;10581397;28;20044;-73
2022/05/07 17:50:31;;;;;;;7.35;5.43;;;;;;;16.33;75.07;102454.81;10581360;28;20063;-73
2022/05/07 17:55:31;;;;;;;16.42;7.30;;;;;;;16.53;74.66;102450.34;10581160;28;20557;-73
2022/05/07 18:00:32;;;;;;;6.97;5.60;;;;;;;16.69;75.57;102450.03;10579670;28;20027;-73
2022/05/07 18:05:33;;;;;;;10.45;5.28;;;;;;;16.84;72.89;102449.09;10580649;28;20126;-74
2022/05/07 18:10:34;;;;;;;11.65;4.75;;;;;;;16.93;71.89;102454.19;10579734;28;20111;-74
2022/05/07 18:15:36;;;;;;;9.68;5.32;;;;;;;16.76;73.18;102452.84;10580445;28;20558;-74
2022/05/07 18:20:37;;;;;;;5.60;5.07;;;;;;;16.60;71.23;102459.44;10579136;28;20063;-74
2022/05/07 18:25:37;;;;;;;6.53;5.30;;;;;;;16.36;73.86;102474.38;10578776;28;20069;-74
2022/05/07 18:30:38;;;;;;;4.65;3.20;;;;;;;16.27;80.36;102475.56;10586248;28;20073;-75
2022/05/07 18:35:38;;;;;;;3.03;2.72;;;;;;;16.36;79.87;102490.78;10588988;28;20432;-73
2022/05/07 18:45:58;;;;;;;5.63;4.22;;;;;;;16.23;80.95;102496.16;10588466;28;20036;-74
2022/05/07 18:50:58;;;;;;;5.20;4.40;;;;;;;15.99;82.42;102502.88;10588564;28;20036;-73
2022/05/07 19:01:18;;;;;;;4.63;3.20;;;;;;;15.69;83.22;102521.22;10572237;28;20027;-73
2022/05/07 19:06:18;;;;;;;6.78;2.90;;;;;;;15.58;82.62;102525.25;10586425;28;20035;-73
2022/05/07 19:11:19;;;;;;;3.63;3.33;;;;;;;15.49;83.06;102538.16;10585651;28;20027;-73
2022/05/07 19:16:19;;;;;;;4.65;3.13;;;;;;;15.28;82.56;102549.00;10587603;28;20050;-73
2022/05/07 19:21:20;;;;;;;3.55;2.90;;;;;;;15.10;84.54;102544.78;10585114;28;20412;-74
2022/05/07 19:26:20;;;;;;;3.47;2.78;;;;;;;15.03;86.11;102554.75;10584744;28;20077;-73
2022/05/07 19:31:22;;;;;;;9.05;2.90;;;;;;;14.98;85.83;102557.19;10586599;28;20047;-74
2022/05/07 19:36:22;;;;;;;4.18;2.60;;;;;;;14.97;84.25;102579.19;10584772;28;20486;-73
2022/05/07 19:41:22;;;;;;;7.65;3.38;;;;;;;14.80;85.36;102576.59;10567217;28;20104;-72
2022/05/07 19:46:24;;;;;;;5.18;3.00;;;;;;;14.71;83.54;102577.75;10584588;28;20127;-73
2022/05/07 19:51:25;;;;;;;2.67;2.30;;;;;;;14.64;81.97;102588.53;10568586;28;20471;-73
2022/05/07 19:56:25;;;;;;;3.03;2.75;;;;;;;14.42;84.01;102594.78;10584601;28;20031;-73
2022/05/07 20:01:26;;;;;;;4.82;3.50;;;;;;;14.30;81.00;102590.81;10585659;28;20031;-74
2022/05/07 20:06:26;;;;;;;3.70;2.90;;;;;;;14.11;82.96;102609.31;10584688;28;20027;-73
2022/05/07 20:11:27;;;;;;;8.00;3.45;;;;;;;14.01;83.51;102624.16;10584791;27;20479;-74
2022/05/07 20:16:28;;;;;;;3.88;3.08;;;;;;;14.00;83.84;102611.56;10566163;28;20042;-73
2022/05/07 20:26:47;;;;;;;6.53;4.32;;;;;;;13.86;82.70;102629.53;10583897;28;20039;-73
2022/05/07 20:31:48;;;;;;;7.65;3.90;;;;;;;13.65;83.67;102643.72;10566012;28;20031;-73
2022/05/07 20:36:49;;;;;;;5.68;4.25;;;;;;;13.53;82.56;102648.72;10584842;28;20035;-73
2022/05/07 20:41:50;;;;;;;7.15;4.70;;;;;;;13.37;83.98;102654.16;10585104;28;20390;-73
2022/05/07 20:46:55;;;;;;;10.75;6.25;;;;;;;13.34;83.68;102665.44;10582683;28;20059;-73
2022/05/07 20:51:56;;;;;;;8.07;5.50;;;;;;;13.28;82.75;102664.22;10581492;28;20041;-73
2022/05/07 20:56:56;;;;;;;6.38;5.13;;;;;;;13.01;86.96;102674.41;10581666;28;20099;-73
2022/05/07 21:01:56;;;;;;;10.43;7.07;;;;;;;12.91;87.30;102672.88;10582712;28;20114;-73
2022/05/07 21:06:57;;;;;;;11.57;6.18;;;;;;;12.78;87.10;102682.38;10581317;28;20036;-73
2022/05/07 21:11:57;;;;;;;9.98;8.20;;;;;;;12.68;88.18;102675.41;10582006;28;20430;-73
2022/05/07 21:16:58;;;;;;;8.63;7.65;;;;;;;12.54;90.05;102677.78;10564598;28;20044;-73
2022/05/07 21:21:58;;;;;;;9.77;7.07;;;;;;;12.43;92.78;102683.53;10581134;28;20080;-73
2022/05/07 21:26:59;;;;;;;14.52;6.68;;;;;;;12.37;93.49;102694.19;10546000;28;20104;-74
2022/05/07 21:31:59;;;;;;;14.85;8.75;;;;;;;12.36;92.55;102692.50;10564213;28;20027;-72
2022/05/07 21:37:00;;;;;;;13.75;8.68;;;;;;;12.31;92.87;102695.69;10581518;28;20031;-73
2022/05/07 21:42:00;;;;;;;12.45;9.05;;;;;;;12.30;91.78;102694.00;10581309;28;20047;-73
2022/05/07 21:47:01;;;;;;;16.48;8.75;;;;;;;12.21;97.34;102692.28;10581636;28;20031;-74
2022/05/07 21:52:01;;;;;;;11.27;8.32;;;;;;;12.19;95.83;102697.91;10581489;28;20046;-73
2022/05/07 21:57:02;;;;;;;13.00;8.50;;;;;;;12.10;98.21;102699.72;10580436;28;20418;-74
2022/05/07 22:02:02;;;;;;;15.32;9.60;;;;;;;12.13;96.07;102703.13;10582562;28;20474;-73
2022/05/07 22:07:03;;;;;;;17.63;8.23;;;;;;;12.08;97.21;102709.88;10588709;28;20032;-73
2022/05/07 22:12:04;;;;;;;18.80;9.77;;;;;;;12.08;93.53;102715.31;10589836;28;20471;-73
2022/05/07 22:17:04;;;;;;;16.25;8.90;;;;;;;12.05;94.00;102712.91;10587746;28;20032;-73
2022/05/07 22:22:05;;;;;;;10.00;8.93;;;;;;;11.96;96.22;102703.03;10588473;28;20030;-73
2022/05/07 22:27:08;;;;;;;12.05;10.13;;;;;;;12.01;94.16;102710.72;10588685;28;20050;-72
2022/05/07 22:32:08;;;;;;;20.95;9.23;;;;;;;11.98;95.16;102716.47;10589021;28;20537;-73
2022/05/07 22:37:09;;;;;;;16.15;9.23;;;;;;;11.99;99.62;102710.00;10588505;28;20040;-73
2022/05/07 22:42:09;;;;;;;16.55;7.88;;;;;;;12.06;98.90;102708.34;10588507;28;20052;-72
2022/05/07 22:47:10;;;;;;;11.73;7.65;;;;;;;12.10;99.79;102718.72;10586557;28;20063;-73
2022/05/07 22:52:10;;;;;;;13.35;8.98;;;;;;;12.09;98.66;102717.03;10587887;28;20028;-73
2022/05/07 22:57:11;;;;;;;17.55;8.68;;;;;;;12.00;98.96;102709.88;10585714;28;20494;-73
2022/05/07 23:02:11;;;;;;;11.10;8.00;;;;;;;11.93;99.44;102729.66;10587352;28;20027;-72
2022/05/07 23:07:13;;;;;;;14.07;7.53;;;;;;;11.86;99.08;102732.16;10587945;28;20039;-72
2022/05/07 23:12:13;;;;;;;15.15;8.07;;;;;;;11.78;100.00;102741.09;10586774;28;20093;-73
2022/05/07 23:17:14;;;;;;;8.98;7.20;;;;;;;11.73;99.81;102739.88;10586408;28;20144;-73
2022/05/07 23:22:14;;;;;;;11.23;7.90;;;;;;;11.75;97.07;102743.28;10586431;28;20467;-73
2022/05/07 23:27:14;;;;;;;13.77;7.97;;;;;;;11.67;100.00;102740.50;10586288;28;20032;-73
2022/05/07 23:32:15;;;;;;;14.70;7.35;;;;;;;11.75;99.07;102752.28;10584758;28;20434;-73
2022/05/07 23:37:15;;;;;;;10.25;7.97;;;;;;;11.81;98.86;102740.78;10585991;28;20126;-73
2022/05/07 23:42:15;;;;;;;14.68;8.98;;;;;;;11.91;100.00;102753.44;10586658;28;20415;-74
2022/05/07 23:47:16;;;;;;;8.93;8.02;;;;;;;11.99;100.00;102750.75;10568024;28;20031;-73
2022/05/07 23:52:16;;;;;;;10.60;7.57;;;;;;;12.10;100.00;102759.47;10585285;28;20032;-73
2022/05/07 23:57:17;;;;;;;9.80;7.25;;;;;;;12.17;99.60;102756.09;10584462;28;20104;-73
